CFG215 EBBR-LFPG
Flight info
| Callsign | CFG215 |
|---|---|
| Flight time | 0h 38m |
| Altitude | 19000 |
| Route | CIV Y50 IDOKO/N0382F170 Y50 MATIX |
| Aircraft | A320/M-SDE3FGHIRWY/LB1 |
Departure
| Time | 2026-05-07 12:29 |
|---|---|
| Airport | Brussels Airport (EBBR) |
Arrival
| Time | 2026-05-07 13:07 |
|---|---|
| Airport | Charles de Gaulle International Airport (LFPG) |
| Time | Latitude | Longitude | Altitude | Speed | Heading |
|---|---|---|---|---|---|
| 2026-05-07 11:43 | 50.90263 | 4.48519 | 137 ft | 0 kts | 336° |
| 2026-05-07 12:16 | 50.90263 | 4.48520 | 137 ft | 1 kts | 336° |
| 2026-05-07 12:17 | 50.90242 | 4.48534 | 137 ft | 4 kts | 336° |
| 2026-05-07 12:17 | 50.90217 | 4.48551 | 137 ft | 4 kts | 340° |
| 2026-05-07 12:17 | 50.90192 | 4.48561 | 138 ft | 4 kts | 12° |
| 2026-05-07 12:17 | 50.90179 | 4.48549 | 138 ft | 0 kts | 65° |
| 2026-05-07 12:23 | 50.90187 | 4.48575 | 139 ft | 7 kts | 65° |
| 2026-05-07 12:23 | 50.90216 | 4.48677 | 139 ft | 13 kts | 65° |
| 2026-05-07 12:23 | 50.90258 | 4.48823 | 138 ft | 15 kts | 65° |
| 2026-05-07 12:24 | 50.90305 | 4.48982 | 138 ft | 17 kts | 65° |
| 2026-05-07 12:24 | 50.90356 | 4.49157 | 137 ft | 18 kts | 66° |
| 2026-05-07 12:24 | 50.90407 | 4.49334 | 135 ft | 18 kts | 65° |
| 2026-05-07 12:24 | 50.90461 | 4.49526 | 134 ft | 19 kts | 67° |
| 2026-05-07 12:25 | 50.90528 | 4.49624 | 135 ft | 13 kts | 13° |
| 2026-05-07 12:25 | 50.90627 | 4.49662 | 133 ft | 16 kts | 14° |
| 2026-05-07 12:25 | 50.90738 | 4.49707 | 133 ft | 14 kts | 15° |
| 2026-05-07 12:25 | 50.90834 | 4.49748 | 127 ft | 16 kts | 15° |
| 2026-05-07 12:26 | 50.90939 | 4.49807 | 125 ft | 15 kts | 35° |
| 2026-05-07 12:26 | 50.91019 | 4.49900 | 123 ft | 11 kts | 28° |
| 2026-05-07 12:26 | 50.91036 | 4.49911 | 123 ft | 0 kts | 20° |
| 2026-05-07 12:26 | 50.91041 | 4.49914 | 120 ft | 2 kts | 20° |
| 2026-05-07 12:27 | 50.91060 | 4.49925 | 119 ft | 5 kts | 20° |
| 2026-05-07 12:27 | 50.91095 | 4.49942 | 120 ft | 6 kts | 10° |
| 2026-05-07 12:27 | 50.91133 | 4.49875 | 120 ft | 10 kts | 264° |
| 2026-05-07 12:27 | 50.91115 | 4.49800 | 123 ft | 4 kts | 246° |
| 2026-05-07 12:28 | 50.91056 | 4.49595 | 125 ft | 54 kts | 245° |
| 2026-05-07 12:28 | 50.90800 | 4.48709 | 135 ft | 120 kts | 245° |
| 2026-05-07 12:28 | 50.90380 | 4.47250 | 142 ft | 170 kts | 245° |
| 2026-05-07 12:28 | 50.89878 | 4.45486 | 636 ft | 174 kts | 246° |
| 2026-05-07 12:29 | 50.89382 | 4.43733 | 1309 ft | 175 kts | 246° |
| 2026-05-07 12:29 | 50.88903 | 4.41951 | 1985 ft | 176 kts | 252° |
| 2026-05-07 12:29 | 50.88560 | 4.40085 | 2480 ft | 185 kts | 256° |
| 2026-05-07 12:29 | 50.88198 | 4.37996 | 2770 ft | 208 kts | 253° |
| 2026-05-07 12:30 | 50.87403 | 4.35937 | 3116 ft | 228 kts | 222° |
| 2026-05-07 12:30 | 50.85968 | 4.34674 | 3424 ft | 253 kts | 202° |
| 2026-05-07 12:30 | 50.84302 | 4.33468 | 4034 ft | 264 kts | 206° |
| 2026-05-07 12:30 | 50.82661 | 4.32134 | 4842 ft | 269 kts | 207° |
| 2026-05-07 12:31 | 50.80986 | 4.30728 | 5694 ft | 272 kts | 208° |
| 2026-05-07 12:31 | 50.79313 | 4.29317 | 6539 ft | 274 kts | 210° |
| 2026-05-07 12:31 | 50.77783 | 4.27497 | 7339 ft | 278 kts | 224° |
| 2026-05-07 12:31 | 50.76556 | 4.25124 | 8163 ft | 281 kts | 234° |
| 2026-05-07 12:32 | 50.75425 | 4.22593 | 8976 ft | 284 kts | 234° |
| 2026-05-07 12:32 | 50.74268 | 4.20042 | 9763 ft | 286 kts | 234° |
| 2026-05-07 12:32 | 50.73095 | 4.17472 | 10443 ft | 294 kts | 234° |
| 2026-05-07 12:32 | 50.71869 | 4.14793 | 10654 ft | 317 kts | 234° |
| 2026-05-07 12:33 | 50.69107 | 4.08781 | 11259 ft | 352 kts | 234° |
| 2026-05-07 12:33 | 50.67661 | 4.05630 | 11901 ft | 357 kts | 234° |
| 2026-05-07 12:33 | 50.66202 | 4.02443 | 12564 ft | 360 kts | 234° |
| 2026-05-07 12:34 | 50.64732 | 3.99226 | 13246 ft | 363 kts | 234° |
| 2026-05-07 12:34 | 50.63250 | 3.95991 | 13894 ft | 366 kts | 234° |
| 2026-05-07 12:34 | 50.61752 | 3.92733 | 14519 ft | 369 kts | 234° |
| 2026-05-07 12:34 | 50.60157 | 3.89558 | 15129 ft | 372 kts | 226° |
| 2026-05-07 12:35 | 50.58151 | 3.86970 | 15726 ft | 376 kts | 213° |
| 2026-05-07 12:35 | 50.55788 | 3.85184 | 16314 ft | 380 kts | 199° |
| 2026-05-07 12:35 | 50.53194 | 3.84330 | 16886 ft | 384 kts | 185° |
| 2026-05-07 12:35 | 50.50509 | 3.84455 | 17444 ft | 389 kts | 174° |
| 2026-05-07 12:36 | 50.47813 | 3.84934 | 17992 ft | 391 kts | 175° |
| 2026-05-07 12:36 | 50.45098 | 3.85411 | 18533 ft | 394 kts | 175° |
| 2026-05-07 12:36 | 50.42361 | 3.85885 | 19061 ft | 397 kts | 175° |
| 2026-05-07 12:36 | 50.39605 | 3.86359 | 19581 ft | 400 kts | 175° |
| 2026-05-07 12:37 | 50.36826 | 3.86832 | 20087 ft | 403 kts | 175° |
| 2026-05-07 12:37 | 50.34034 | 3.87303 | 20574 ft | 405 kts | 175° |
| 2026-05-07 12:37 | 50.31222 | 3.87779 | 20965 ft | 408 kts | 175° |
| 2026-05-07 12:37 | 50.28395 | 3.88260 | 21062 ft | 413 kts | 175° |
| 2026-05-07 12:38 | 50.25497 | 3.88753 | 21084 ft | 424 kts | 175° |
| 2026-05-07 12:38 | 50.22546 | 3.89254 | 21080 ft | 428 kts | 175° |
| 2026-05-07 12:38 | 50.19596 | 3.89756 | 21082 ft | 429 kts | 175° |
| 2026-05-07 12:38 | 50.16627 | 3.90261 | 21083 ft | 429 kts | 175° |
| 2026-05-07 12:39 | 50.13659 | 3.90766 | 21082 ft | 429 kts | 175° |
| 2026-05-07 12:39 | 50.10682 | 3.91272 | 21080 ft | 429 kts | 175° |
| 2026-05-07 12:39 | 50.07712 | 3.91775 | 21080 ft | 429 kts | 175° |
| 2026-05-07 12:39 | 50.04746 | 3.92275 | 21081 ft | 429 kts | 175° |
| 2026-05-07 12:40 | 50.01776 | 3.92776 | 21084 ft | 429 kts | 175° |
| 2026-05-07 12:40 | 49.98810 | 3.93276 | 21079 ft | 429 kts | 175° |
| 2026-05-07 12:40 | 49.95845 | 3.93779 | 21086 ft | 429 kts | 175° |
| 2026-05-07 12:40 | 49.92870 | 3.94288 | 21078 ft | 429 kts | 175° |
| 2026-05-07 12:41 | 49.89907 | 3.94792 | 21074 ft | 429 kts | 175° |
| 2026-05-07 12:41 | 49.86933 | 3.95292 | 21068 ft | 429 kts | 175° |
| 2026-05-07 12:41 | 49.83968 | 3.95785 | 21065 ft | 429 kts | 175° |
| 2026-05-07 12:41 | 49.80995 | 3.96278 | 21069 ft | 429 kts | 175° |
| 2026-05-07 12:42 | 49.78028 | 3.96775 | 21070 ft | 429 kts | 175° |
| 2026-05-07 12:42 | 49.75062 | 3.97272 | 21070 ft | 429 kts | 175° |
| 2026-05-07 12:42 | 49.72097 | 3.97770 | 21068 ft | 428 kts | 175° |
| 2026-05-07 12:42 | 49.69135 | 3.98267 | 21064 ft | 428 kts | 175° |
| 2026-05-07 12:43 | 49.66172 | 3.98759 | 21063 ft | 428 kts | 175° |
| 2026-05-07 12:43 | 49.63202 | 3.98962 | 21054 ft | 427 kts | 185° |
| 2026-05-07 12:43 | 49.60293 | 3.98229 | 21052 ft | 425 kts | 197° |
| 2026-05-07 12:43 | 49.57554 | 3.96562 | 21051 ft | 423 kts | 209° |
| 2026-05-07 12:44 | 49.55151 | 3.94115 | 21056 ft | 406 kts | 220° |
| 2026-05-07 12:44 | 49.53149 | 3.91121 | 20361 ft | 403 kts | 231° |
| 2026-05-07 12:44 | 49.51532 | 3.87526 | 19310 ft | 412 kts | 238° |
| 2026-05-07 12:44 | 49.50515 | 3.85065 | 18885 ft | 410 kts | 238° |
| 2026-05-07 12:45 | 49.48989 | 3.81397 | 18368 ft | 404 kts | 238° |
| 2026-05-07 12:45 | 49.47653 | 3.77640 | 17834 ft | 399 kts | 247° |
| 2026-05-07 12:45 | 49.46773 | 3.73621 | 17338 ft | 394 kts | 256° |
| 2026-05-07 12:45 | 49.46099 | 3.69572 | 16843 ft | 389 kts | 256° |
| 2026-05-07 12:46 | 49.45421 | 3.65565 | 16344 ft | 385 kts | 255° |
| 2026-05-07 12:46 | 49.44751 | 3.61635 | 15887 ft | 371 kts | 255° |
| 2026-05-07 12:46 | 49.44120 | 3.57940 | 15758 ft | 345 kts | 255° |
| 2026-05-07 12:46 | 49.43531 | 3.54486 | 15574 ft | 324 kts | 255° |
| 2026-05-07 12:47 | 49.42980 | 3.51247 | 15394 ft | 304 kts | 255° |
| 2026-05-07 12:47 | 49.42462 | 3.48196 | 15225 ft | 286 kts | 255° |
| 2026-05-07 12:47 | 49.41974 | 3.45326 | 15068 ft | 271 kts | 255° |
| 2026-05-07 12:47 | 49.41504 | 3.42550 | 14917 ft | 267 kts | 255° |
| 2026-05-07 12:48 | 49.41043 | 3.39805 | 14761 ft | 266 kts | 255° |
| 2026-05-07 12:48 | 49.40599 | 3.37049 | 14615 ft | 266 kts | 261° |
| 2026-05-07 12:48 | 49.40399 | 3.34237 | 14427 ft | 265 kts | 257° |
| 2026-05-07 12:48 | 49.39778 | 3.31598 | 14337 ft | 264 kts | 243° |
| 2026-05-07 12:49 | 49.38892 | 3.29135 | 14280 ft | 264 kts | 239° |
| 2026-05-07 12:49 | 49.37902 | 3.26647 | 14228 ft | 284 kts | 239° |
| 2026-05-07 12:49 | 49.36860 | 3.24012 | 14162 ft | 292 kts | 239° |
| 2026-05-07 12:49 | 49.35833 | 3.21310 | 14097 ft | 294 kts | 240° |
| 2026-05-07 12:50 | 49.34835 | 3.18572 | 14033 ft | 294 kts | 241° |
| 2026-05-07 12:50 | 49.33860 | 3.15816 | 13966 ft | 294 kts | 242° |
| 2026-05-07 12:50 | 49.32898 | 3.13051 | 13901 ft | 294 kts | 242° |
| 2026-05-07 12:50 | 49.31950 | 3.10295 | 13835 ft | 293 kts | 242° |
| 2026-05-07 12:51 | 49.31195 | 3.07405 | 13760 ft | 292 kts | 255° |
| 2026-05-07 12:51 | 49.30719 | 3.04378 | 13686 ft | 293 kts | 257° |
| 2026-05-07 12:51 | 49.30278 | 3.01343 | 13610 ft | 292 kts | 257° |
| 2026-05-07 12:51 | 49.29839 | 2.98305 | 13535 ft | 292 kts | 257° |
| 2026-05-07 12:52 | 49.29402 | 2.95266 | 13442 ft | 292 kts | 257° |
| 2026-05-07 12:52 | 49.28972 | 2.92274 | 13319 ft | 291 kts | 257° |
| 2026-05-07 12:52 | 49.28530 | 2.89206 | 13189 ft | 291 kts | 257° |
| 2026-05-07 12:52 | 49.28096 | 2.86189 | 13064 ft | 290 kts | 257° |
| 2026-05-07 12:53 | 49.27664 | 2.83177 | 12935 ft | 289 kts | 257° |
| 2026-05-07 12:53 | 49.27232 | 2.80171 | 12812 ft | 289 kts | 257° |
| 2026-05-07 12:53 | 49.26801 | 2.77171 | 12688 ft | 288 kts | 257° |
| 2026-05-07 12:53 | 49.26377 | 2.74218 | 12564 ft | 288 kts | 257° |
| 2026-05-07 12:54 | 49.25946 | 2.71223 | 12444 ft | 288 kts | 257° |
| 2026-05-07 12:54 | 49.25514 | 2.68230 | 12333 ft | 288 kts | 257° |
| 2026-05-07 12:54 | 49.25082 | 2.65240 | 12212 ft | 287 kts | 257° |
| 2026-05-07 12:54 | 49.24652 | 2.62256 | 12087 ft | 287 kts | 257° |
| 2026-05-07 12:55 | 49.24225 | 2.59297 | 11963 ft | 287 kts | 257° |
| 2026-05-07 12:55 | 49.23797 | 2.56328 | 11841 ft | 286 kts | 257° |
| 2026-05-07 12:55 | 49.23368 | 2.53357 | 11708 ft | 285 kts | 257° |
| 2026-05-07 12:55 | 49.22941 | 2.50393 | 11601 ft | 285 kts | 257° |
| 2026-05-07 12:56 | 49.22512 | 2.47434 | 11486 ft | 285 kts | 257° |
| 2026-05-07 12:56 | 49.22084 | 2.44481 | 11357 ft | 285 kts | 257° |
| 2026-05-07 12:56 | 49.21655 | 2.41519 | 11229 ft | 284 kts | 257° |
| 2026-05-07 12:56 | 49.21226 | 2.38567 | 11021 ft | 284 kts | 257° |
| 2026-05-07 12:57 | 49.20800 | 2.35628 | 10769 ft | 283 kts | 257° |
| 2026-05-07 12:57 | 49.20373 | 2.32698 | 10521 ft | 282 kts | 257° |
| 2026-05-07 12:57 | 49.19947 | 2.29776 | 10265 ft | 281 kts | 257° |
| 2026-05-07 12:57 | 49.19520 | 2.26858 | 10019 ft | 281 kts | 257° |
| 2026-05-07 12:58 | 49.19094 | 2.23949 | 9766 ft | 280 kts | 257° |
| 2026-05-07 12:58 | 49.18668 | 2.21041 | 9507 ft | 280 kts | 257° |
| 2026-05-07 12:58 | 49.18239 | 2.18125 | 9064 ft | 282 kts | 257° |
| 2026-05-07 12:58 | 49.17736 | 2.15228 | 8690 ft | 280 kts | 246° |
| 2026-05-07 12:59 | 49.16689 | 2.12786 | 8632 ft | 276 kts | 224° |
| 2026-05-07 12:59 | 49.15113 | 2.11140 | 8569 ft | 276 kts | 201° |
| 2026-05-07 12:59 | 49.13258 | 2.10573 | 8508 ft | 276 kts | 180° |
| 2026-05-07 12:59 | 49.11340 | 2.10643 | 8416 ft | 277 kts | 178° |
| 2026-05-07 13:00 | 49.09419 | 2.10729 | 8132 ft | 275 kts | 178° |
| 2026-05-07 13:00 | 49.07508 | 2.10811 | 7794 ft | 273 kts | 178° |
| 2026-05-07 13:00 | 49.05615 | 2.10889 | 7450 ft | 272 kts | 178° |
| 2026-05-07 13:00 | 49.03726 | 2.10968 | 7104 ft | 270 kts | 178° |
| 2026-05-07 13:01 | 49.01847 | 2.11046 | 6757 ft | 269 kts | 178° |
| 2026-05-07 13:01 | 48.99986 | 2.11131 | 6415 ft | 268 kts | 176° |
| 2026-05-07 13:01 | 48.98240 | 2.11929 | 6077 ft | 264 kts | 144° |
| 2026-05-07 13:01 | 48.97124 | 2.14081 | 5705 ft | 261 kts | 108° |
| 2026-05-07 13:02 | 48.97019 | 2.16783 | 5276 ft | 261 kts | 75° |
| 2026-05-07 13:02 | 48.97583 | 2.19390 | 4914 ft | 258 kts | 77° |
| 2026-05-07 13:02 | 48.97782 | 2.22027 | 4585 ft | 244 kts | 87° |
| 2026-05-07 13:02 | 48.97874 | 2.24541 | 4274 ft | 232 kts | 85° |
| 2026-05-07 13:03 | 48.97996 | 2.26936 | 3968 ft | 223 kts | 85° |
| 2026-05-07 13:03 | 48.98126 | 2.29235 | 3679 ft | 214 kts | 84° |
| 2026-05-07 13:03 | 48.98251 | 2.31444 | 3406 ft | 205 kts | 84° |
| 2026-05-07 13:03 | 48.98368 | 2.33538 | 3169 ft | 193 kts | 84° |
| 2026-05-07 13:04 | 48.98480 | 2.35522 | 2896 ft | 183 kts | 84° |
| 2026-05-07 13:04 | 48.98586 | 2.37416 | 2648 ft | 175 kts | 84° |
| 2026-05-07 13:04 | 48.98686 | 2.39200 | 2418 ft | 164 kts | 84° |
| 2026-05-07 13:04 | 48.98779 | 2.40886 | 2208 ft | 157 kts | 84° |
| 2026-05-07 13:05 | 48.98870 | 2.42528 | 2004 ft | 154 kts | 84° |
| 2026-05-07 13:05 | 48.98959 | 2.44155 | 1796 ft | 154 kts | 84° |
| 2026-05-07 13:05 | 48.99054 | 2.45771 | 1618 ft | 152 kts | 84° |
| 2026-05-07 13:05 | 48.99148 | 2.47359 | 1429 ft | 151 kts | 85° |
| 2026-05-07 13:06 | 48.99221 | 2.48962 | 1204 ft | 153 kts | 85° |
| 2026-05-07 13:06 | 48.99299 | 2.50561 | 1029 ft | 150 kts | 85° |
| 2026-05-07 13:06 | 48.99392 | 2.52132 | 835 ft | 149 kts | 84° |
| 2026-05-07 13:06 | 48.99484 | 2.53720 | 603 ft | 151 kts | 85° |
| 2026-05-07 13:07 | 48.99570 | 2.55299 | 401 ft | 149 kts | 84° |
| 2026-05-07 13:07 | 48.99646 | 2.56674 | 356 ft | 100 kts | 85° |
| 2026-05-07 13:07 | 48.99687 | 2.57281 | 360 ft | 24 kts | 71° |
| 2026-05-07 13:07 | 48.99751 | 2.57498 | 354 ft | 17 kts | 63° |
| 2026-05-07 13:08 | 48.99772 | 2.57564 | 359 ft | 0 kts | 66° |
| 2026-05-07 13:08 | 48.99781 | 2.57594 | 355 ft | 4 kts | 65° |
| 2026-05-07 13:08 | 48.99799 | 2.57653 | 359 ft | 8 kts | 64° |
| 2026-05-07 13:08 | 48.99822 | 2.57723 | 356 ft | 7 kts | 64° |
| 2026-05-07 13:09 | 48.99847 | 2.57805 | 360 ft | 13 kts | 65° |
| 2026-05-07 13:09 | 48.99896 | 2.57969 | 354 ft | 20 kts | 69° |
| 2026-05-07 13:09 | 48.99913 | 2.58155 | 360 ft | 18 kts | 86° |
| 2026-05-07 13:09 | 48.99942 | 2.58284 | 361 ft | 11 kts | 34° |
| 2026-05-07 13:10 | 49.00009 | 2.58308 | 359 ft | 9 kts | 16° |
| 2026-05-07 13:10 | 49.00068 | 2.58319 | 359 ft | 8 kts | 356° |
| 2026-05-07 13:10 | 49.00113 | 2.58321 | 354 ft | 5 kts | 25° |
| 2026-05-07 13:10 | 49.00124 | 2.58367 | 357 ft | 5 kts | 83° |
| 2026-05-07 13:11 | 49.00126 | 2.58408 | 360 ft | 3 kts | 85° |
| 2026-05-07 13:11 | 49.00127 | 2.58423 | 354 ft | 0 kts | 85° |